Time;durP1;ratioP1;P1;durP2;ratioP2;P2;SDS_P1;SDS_P2;PMS_P1;PMS_P2;Temp;Humidity;BMP_temperature;BMP_pressure;BME280_temperature;BME280_humidity;BME280_pressure;Samples;Min_cycle;Max_cycle;Signal;HPM_P1;HPM_P2
2023/04/20 00:00:20;;;;;;;4.00;1.42;;;;;;;5.79;100.00;101183.50;5260112;28;20680;-72
2023/04/20 00:02:51;;;;;;;4.05;1.65;;;;;;;5.81;100.00;101185.22;5260411;28;20436;-71
2023/04/20 00:05:22;;;;;;;2.78;1.42;;;;;;;5.75;100.00;101168.81;5235406;28;20050;-72
2023/04/20 00:07:53;;;;;;;5.43;1.70;;;;;;;5.81;100.00;101182.63;5254972;28;20448;-75
2023/04/20 00:10:23;;;;;;;3.92;1.52;;;;;;;5.72;100.00;101174.03;5260997;28;20120;-71
2023/04/20 00:12:54;;;;;;;5.40;1.50;;;;;;;5.91;100.00;101170.47;5255389;28;20456;-73
2023/04/20 00:15:24;;;;;;;3.95;1.73;;;;;;;5.66;100.00;101158.50;5252548;28;20119;-71
2023/04/20 00:17:54;;;;;;;5.28;1.80;;;;;;;5.88;100.00;101171.34;5263648;28;20031;-72
2023/04/20 00:20:25;;;;;;;5.97;1.75;;;;;;;5.72;100.00;101169.69;5238213;28;20048;-73
2023/04/20 00:22:56;;;;;;;4.80;1.73;;;;;;;5.86;100.00;101167.03;5252537;28;20028;-74
2023/04/20 00:25:26;;;;;;;5.63;1.70;;;;;;;5.68;100.00;101167.13;5255335;28;20026;-70
2023/04/20 00:27:57;;;;;;;6.57;1.90;;;;;;;5.73;100.00;101157.59;5227451;28;20133;-72
2023/04/20 00:30:27;;;;;;;6.20;1.80;;;;;;;5.73;100.00;101155.84;5255960;28;20019;-73
2023/04/20 00:32:57;;;;;;;3.30;1.77;;;;;;;5.82;100.00;101154.97;5258880;28;20478;-72
2023/04/20 00:35:28;;;;;;;4.03;2.17;;;;;;;5.74;100.00;101154.13;5259231;28;20043;-72
2023/04/20 00:37:58;;;;;;;5.50;2.10;;;;;;;5.88;100.00;101148.00;5258939;28;20031;-72
2023/04/20 00:40:28;;;;;;;6.82;1.98;;;;;;;5.90;100.00;101154.03;5260008;28;20035;-74
2023/04/20 00:43:11;;;;;;;6.05;2.05;;;;;;;5.75;100.00;101145.47;5255362;28;20111;-73
2023/04/20 00:45:42;;;;;;;4.35;2.22;;;;;;;5.84;100.00;101148.91;5257684;28;20401;-70
2023/04/20 00:48:12;;;;;;;8.00;2.33;;;;;;;5.82;100.00;101142.00;5257017;28;20492;-72
2023/04/20 00:50:43;;;;;;;7.70;2.55;;;;;;;5.80;100.00;101141.16;5252574;28;20436;-73
2023/04/20 00:53:15;;;;;;;5.45;2.38;;;;;;;5.95;100.00;101126.31;5252119;28;20023;-71
2023/04/20 00:55:46;;;;;;;4.97;2.35;;;;;;;5.98;100.00;101128.03;5235248;28;20596;-73
2023/04/20 00:58:16;;;;;;;8.02;2.42;;;;;;;6.04;100.00;101122.78;5257505;28;20154;-71
2023/04/20 01:00:46;;;;;;;6.45;2.08;;;;;;;6.03;100.00;101127.13;5259779;28;20055;-73
2023/04/20 01:03:17;;;;;;;5.93;2.20;;;;;;;6.01;100.00;101121.09;5271384;28;20350;-72
2023/04/20 01:05:47;;;;;;;4.50;2.00;;;;;;;5.88;100.00;101118.63;5242131;28;20545;-72
2023/04/20 01:08:18;;;;;;;6.65;2.60;;;;;;;5.67;100.00;101124.78;5255585;28;20027;-72
2023/04/20 01:10:48;;;;;;;7.55;2.63;;;;;;;5.72;100.00;101117.00;5257842;28;20028;-70
2023/04/20 01:13:18;;;;;;;8.45;2.75;;;;;;;5.85;100.00;101110.84;5232439;28;20027;-69
2023/04/20 01:15:49;;;;;;;10.13;4.25;;;;;;;5.73;100.00;101111.75;5238224;28;20020;-69
2023/04/20 01:18:19;;;;;;;6.72;3.10;;;;;;;5.63;100.00;101112.72;5257710;28;20039;-73
2023/04/20 01:20:49;;;;;;;6.32;2.65;;;;;;;5.68;100.00;101120.44;5243025;28;20023;-73
2023/04/20 01:23:20;;;;;;;8.73;2.80;;;;;;;5.85;100.00;101103.94;5236879;28;20512;-72
2023/04/20 01:25:50;;;;;;;6.72;2.70;;;;;;;5.81;100.00;101099.66;5254435;28;20540;-72
2023/04/20 01:28:21;;;;;;;7.18;2.97;;;;;;;5.79;100.00;101092.75;5252812;28;20020;-71
2023/04/20 01:30:52;;;;;;;5.88;2.60;;;;;;;5.88;100.00;101103.06;5258043;28;20030;-72
2023/04/20 01:33:22;;;;;;;8.90;2.97;;;;;;;6.02;100.00;101099.47;5260226;28;20027;-73
2023/04/20 01:35:53;;;;;;;9.15;3.03;;;;;;;5.82;100.00;101100.50;5245514;28;20093;-73
2023/04/20 01:38:24;;;;;;;5.65;2.95;;;;;;;5.86;100.00;101100.47;5256992;28;20020;-72
2023/04/20 01:40:54;;;;;;;8.23;3.20;;;;;;;5.80;100.00;101094.47;5253504;28;20027;-73
2023/04/20 01:43:25;;;;;;;11.57;3.10;;;;;;;5.87;100.00;101090.94;5276761;22;20422;-70
2023/04/20 01:45:55;;;;;;;6.72;3.33;;;;;;;5.83;100.00;101084.94;5270358;28;20485;-72
2023/04/20 01:48:25;;;;;;;8.93;3.58;;;;;;;5.98;100.00;101079.63;5276503;28;20035;-71
2023/04/20 01:50:56;;;;;;;9.65;2.78;;;;;;;6.04;100.00;101084.75;5271723;28;20026;-72
2023/04/20 01:53:26;;;;;;;7.45;3.38;;;;;;;5.71;100.00;101085.00;5267913;28;20019;-72
2023/04/20 01:55:58;;;;;;;10.60;2.92;;;;;;;5.86;100.00;101078.84;5254699;28;20154;-72
2023/04/20 01:58:28;;;;;;;7.40;3.15;;;;;;;5.98;100.00;101078.75;5266057;28;20234;-72
2023/04/20 02:01:01;;;;;;;11.38;3.22;;;;;;;5.84;100.00;101080.59;5260928;28;20413;-72
2023/04/20 02:03:31;;;;;;;6.57;3.20;;;;;;;5.93;100.00;101085.72;5262933;28;20527;-72
2023/04/20 02:06:02;;;;;;;10.10;3.45;;;;;;;5.81;100.00;101078.91;5259959;28;20035;-72
2023/04/20 02:08:32;;;;;;;7.13;3.65;;;;;;;5.73;100.00;101078.06;5273182;28;20562;-72
2023/04/20 02:11:03;;;;;;;9.80;3.60;;;;;;;5.77;100.00;101071.97;5259315;28;20291;-71
2023/04/20 02:13:33;;;;;;;11.40;3.92;;;;;;;5.84;100.00;101072.81;5252946;28;20028;-71
2023/04/20 02:16:04;;;;;;;8.43;3.30;;;;;;;5.93;100.00;101071.00;5259960;28;20085;-71
2023/04/20 02:18:34;;;;;;;11.27;3.25;;;;;;;5.80;100.00;101074.59;5268536;28;20035;-71
2023/04/20 02:21:05;;;;;;;7.28;3.40;;;;;;;5.94;100.00;101066.69;5261964;28;20024;-71
2023/04/20 02:23:35;;;;;;;6.95;3.28;;;;;;;5.92;100.00;101063.25;5261947;28;20474;-71
2023/04/20 02:26:06;;;;;;;11.93;4.05;;;;;;;5.95;100.00;101065.81;5262997;28;20033;-71
2023/04/20 02:28:36;;;;;;;9.95;3.33;;;;;;;5.81;100.00;101070.25;5255617;28;20397;-72
2023/04/20 02:31:06;;;;;;;9.13;4.10;;;;;;;6.03;100.00;101066.59;5242824;28;20043;-73
2023/04/20 02:33:37;;;;;;;8.02;3.72;;;;;;;5.89;100.00;101068.47;5260818;28;20350;-72
2023/04/20 02:36:08;;;;;;;9.07;3.30;;;;;;;5.95;100.00;101060.63;5256573;28;20047;-70
2023/04/20 02:38:38;;;;;;;9.70;3.40;;;;;;;5.82;100.00;101057.28;5265804;28;20035;-72
2023/04/20 02:41:08;;;;;;;9.48;3.28;;;;;;;5.86;100.00;101063.28;5257644;28;20446;-72
2023/04/20 02:43:39;;;;;;;11.88;3.95;;;;;;;5.84;100.00;101070.22;5262979;28;20023;-72
2023/04/20 02:46:09;;;;;;;10.18;3.85;;;;;;;5.84;100.00;101067.63;5256483;28;20019;-70
2023/04/20 02:48:40;;;;;;;8.48;4.30;;;;;;;5.84;100.00;101070.22;5256764;28;20073;-72
2023/04/20 02:51:11;;;;;;;13.02;4.43;;;;;;;5.89;100.00;101069.31;5257660;28;20070;-72
2023/04/20 02:53:41;;;;;;;9.88;3.90;;;;;;;5.77;100.00;101064.19;5264450;28;20051;-72
2023/04/20 02:56:11;;;;;;;9.95;4.53;;;;;;;5.92;100.00;101065.84;5262238;28;20598;-72
2023/04/20 02:58:41;;;;;;;15.48;4.30;;;;;;;5.81;100.00;101065.06;5264465;28;20027;-72
2023/04/20 03:01:12;;;;;;;9.40;4.18;;;;;;;5.84;100.00;101062.44;5260258;28;20085;-72
2023/04/20 03:03:42;;;;;;;11.82;4.10;;;;;;;5.80;100.00;101068.53;5259964;28;20522;-72
2023/04/20 03:06:12;;;;;;;12.13;4.38;;;;;;;5.78;100.00;101078.03;5256555;28;20020;-71
2023/04/20 03:08:43;;;;;;;14.00;4.55;;;;;;;5.86;100.00;101071.94;5258636;28;20035;-72
2023/04/20 03:11:13;;;;;;;9.75;4.40;;;;;;;5.83;100.00;101065.91;5245428;28;20016;-72
2023/04/20 03:13:43;;;;;;;9.38;4.10;;;;;;;5.86;100.00;101071.06;5239641;28;20027;-71
2023/04/20 03:16:14;;;;;;;9.85;4.78;;;;;;;5.79;100.00;101064.22;5257795;28;20020;-72
2023/04/20 03:18:44;;;;;;;11.52;4.72;;;;;;;5.86;100.00;101073.66;5262568;28;20496;-72
2023/04/20 03:21:15;;;;;;;15.48;4.80;;;;;;;5.81;100.00;101070.25;5265037;28;20028;-72
2023/04/20 03:23:45;;;;;;;13.48;5.07;;;;;;;5.83;100.00;101063.31;5275434;28;20055;-72
2023/04/20 03:26:16;;;;;;;13.00;5.22;;;;;;;5.77;100.00;101073.72;5264709;28;20044;-72
2023/04/20 03:28:51;;;;;;;13.05;5.60;;;;;;;5.80;100.00;101065.94;5264085;28;20027;-71
2023/04/20 03:31:21;;;;;;;16.45;5.38;;;;;;;5.82;100.00;101071.97;5258111;28;20121;-71
2023/04/20 03:33:52;;;;;;;16.00;5.90;;;;;;;5.83;100.00;101065.91;5261783;28;20462;-72
2023/04/20 03:36:23;;;;;;;15.05;5.82;;;;;;;5.81;100.00;101073.72;5262730;28;20032;-72
2023/04/20 03:38:53;;;;;;;13.52;5.50;;;;;;;5.84;100.00;101075.41;5264669;28;20046;-72
2023/04/20 03:41:23;;;;;;;11.35;5.00;;;;;;;5.84;100.00;101070.22;5246883;28;20031;-72
2023/04/20 03:43:54;;;;;;;11.48;4.90;;;;;;;5.82;100.00;101079.75;5247114;28;20283;-72
2023/04/20 03:46:25;;;;;;;12.30;5.03;;;;;;;5.85;100.00;101079.72;5263960;28;20081;-72
2023/04/20 03:48:55;;;;;;;17.58;5.55;;;;;;;5.86;100.00;101076.25;5260126;28;20024;-71
2023/04/20 03:51:25;;;;;;;13.07;4.68;;;;;;;5.82;100.00;101074.56;5263725;28;20035;-72
2023/04/20 03:53:56;;;;;;;12.68;4.82;;;;;;;5.86;100.00;101069.34;5262201;28;20027;-72
2023/04/20 03:56:26;;;;;;;14.02;5.18;;;;;;;5.86;100.00;101063.28;5266278;28;20500;-72
2023/04/20 03:58:56;;;;;;;13.20;5.90;;;;;;;5.88;100.00;101067.59;5261695;28;20027;-72
2023/04/20 04:01:27;;;;;;;13.93;5.00;;;;;;;5.90;100.00;101073.63;5267207;28;20117;-72
2023/04/20 04:03:57;;;;;;;15.55;5.70;;;;;;;5.88;100.00;101064.16;5272216;28;20393;-73
2023/04/20 04:06:27;;;;;;;12.07;5.55;;;;;;;5.90;100.00;101075.38;5262522;28;20035;-72
2023/04/20 04:08:58;;;;;;;10.60;5.05;;;;;;;5.94;100.00;101077.06;5262489;28;20117;-72
2023/04/20 04:11:30;;;;;;;13.60;5.50;;;;;;;5.90;100.00;101072.78;5264903;28;20240;-72
2023/04/20 04:14:03;;;;;;;16.55;6.10;;;;;;;5.97;100.00;101069.25;5258516;28;20017;-73
2023/04/20 04:16:34;;;;;;;13.52;5.90;;;;;;;5.93;100.00;101062.38;5250706;28;20032;-72
2023/04/20 04:19:04;;;;;;;14.70;6.00;;;;;;;5.90;100.00;101065.84;5260612;28;20371;-72
2023/04/20 04:21:34;;;;;;;16.90;5.55;;;;;;;5.95;100.00;101063.22;5265159;28;20067;-72
2023/04/20 04:24:06;;;;;;;12.55;5.15;;;;;;;5.83;100.00;101060.72;5261142;28;20017;-73
2023/04/20 04:26:36;;;;;;;10.20;5.00;;;;;;;5.82;100.00;101061.59;5243368;28;20040;-71
2023/04/20 04:29:07;;;;;;;13.85;5.05;;;;;;;5.79;100.00;101057.31;5262574;28;20034;-71
2023/04/20 04:31:38;;;;;;;10.80;4.68;;;;;;;5.77;100.00;101058.16;5242149;28;20024;-72
2023/04/20 04:34:09;;;;;;;16.50;6.00;;;;;;;5.78;100.00;101059.88;5254125;28;20027;-72
2023/04/20 04:36:39;;;;;;;12.20;5.32;;;;;;;5.81;100.00;101059.88;5259519;28;20107;-73
2023/04/20 04:39:10;;;;;;;15.00;5.30;;;;;;;5.76;100.00;101061.63;5277275;22;20033;-72
2023/04/20 04:44:14;;;;;;;13.13;5.03;;;;;;;5.76;100.00;101064.22;5191738;28;20053;-73
2023/04/20 04:46:46;;;;;;;13.98;5.25;;;;;;;5.82;100.00;101065.06;5190915;28;20028;-72
2023/04/20 04:49:16;;;;;;;10.00;4.50;;;;;;;5.85;100.00;101066.75;5192578;28;20478;-73
2023/04/20 04:51:46;;;;;;;9.75;4.38;;;;;;;5.78;100.00;101067.66;5191455;28;20041;-72
2023/04/20 04:54:17;;;;;;;9.73;4.18;;;;;;;5.84;100.00;101070.22;5192391;28;20036;-74
2023/04/20 04:56:50;;;;;;;8.48;4.57;;;;;;;5.83;100.00;101078.88;5204343;23;20652;-92
2023/04/20 04:59:20;;;;;;;9.23;3.78;;;;;;;5.83;100.00;101071.09;5192994;28;20042;-92
2023/04/20 05:02:00;;;;;;;12.05;4.30;;;;;;;5.93;100.00;101080.53;5188145;28;20052;-90
2023/04/20 05:04:41;;;;;;;7.80;3.92;;;;;;;5.89;100.00;101077.09;5193888;28;20486;-91
2023/04/20 05:07:18;;;;;;;11.05;4.47;;;;;;;5.91;100.00;101080.53;5200667;28;20179;-92
2023/04/20 05:13:57;;;;;;;;;;;;;;;;;;;;;
2023/04/20 05:16:43;;;;;;;9.77;3.30;;;;;;;6.00;100.00;101077.88;5168090;28;20078;-92
2023/04/20 05:19:22;;;;;;;;;;;;;;;6.02;100.00;101085.63;5212596;28;20701;-92
2023/04/20 05:26:26;;;;;;;6.30;3.20;;;;;;;7.47;100.00;101087.31;5113119;29;20103;-93
2023/04/20 05:51:32;;;;;;;6.90;2.30;;;;;;;7.09;100.00;101119.06;5137159;23;20056;-73
2023/04/20 05:54:03;;;;;;;4.53;2.67;;;;;;;7.06;100.00;101119.94;5191549;28;20034;-73
2023/04/20 05:56:33;;;;;;;6.80;2.67;;;;;;;6.99;100.00;101117.44;5194999;28;20418;-73
2023/04/20 05:59:04;;;;;;;6.63;2.95;;;;;;;6.96;100.00;101118.34;5188161;28;20033;-73
2023/04/20 06:01:34;;;;;;;5.32;2.60;;;;;;;7.23;100.00;101118.00;5184866;28;20040;-72
2023/04/20 06:06:54;;;;;;;8.98;3.17;;;;;;;7.30;100.00;101124.81;5179311;28;20431;-77
2023/04/20 06:09:25;;;;;;;8.38;3.50;;;;;;;6.94;100.00;101129.66;5184542;28;20507;-77
2023/04/20 06:11:56;;;;;;;8.25;3.30;;;;;;;6.74;100.00;101126.44;5183867;28;20026;-77
2023/04/20 06:14:26;;;;;;;7.90;3.78;;;;;;;6.73;100.00;101122.94;5185490;28;20151;-75
2023/04/20 06:16:56;;;;;;;10.10;3.75;;;;;;;6.87;100.00;101123.66;5177719;28;20373;-74
2023/04/20 06:19:27;;;;;;;8.32;4.03;;;;;;;6.84;100.00;101122.81;5186898;28;20044;-74
2023/04/20 06:21:57;;;;;;;9.10;4.38;;;;;;;6.92;100.00;101123.63;5184796;28;20480;-75
2023/04/20 06:24:27;;;;;;;6.78;4.07;;;;;;;6.98;100.00;101113.13;5184823;28;20029;-75
2023/04/20 06:26:58;;;;;;;10.45;4.63;;;;;;;6.84;100.00;101120.22;5184608;28;20115;-76
2023/04/20 06:29:28;;;;;;;9.63;4.55;;;;;;;6.84;100.00;101112.44;5187404;28;20457;-75
2023/04/20 06:31:58;;;;;;;12.18;4.38;;;;;;;6.92;100.00;101111.47;5184233;28;20252;-74
2023/04/20 06:34:29;;;;;;;8.68;4.53;;;;;;;6.77;100.00;101108.22;5167483;28;20084;-74
2023/04/20 06:36:59;;;;;;;12.20;4.60;;;;;;;6.84;100.00;101115.03;5166730;28;20121;-74
2023/04/20 06:39:29;;;;;;;9.18;4.72;;;;;;;6.96;100.00;101107.09;5177055;28;20513;-74
2023/04/20 06:42:01;;;;;;;9.32;4.47;;;;;;;7.07;100.00;101111.28;5160070;28;20377;-75
2023/04/20 06:44:31;;;;;;;10.13;4.82;;;;;;;7.28;100.00;101106.66;5185320;28;20061;-74
2023/04/20 06:47:02;;;;;;;11.70;5.63;;;;;;;7.48;100.00;101107.22;5184351;28;20516;-72
2023/04/20 06:49:32;;;;;;;9.20;4.57;;;;;;;7.37;100.00;101113.47;5185718;28;20108;-74
2023/04/20 06:52:03;;;;;;;8.20;4.45;;;;;;;7.22;100.00;101113.69;5185599;28;20038;-75
2023/04/20 06:54:33;;;;;;;7.75;4.53;;;;;;;7.40;100.00;101116.03;5186898;28;20037;-75
2023/04/20 06:57:04;;;;;;;8.30;4.80;;;;;;;7.38;100.00;101118.63;5185772;28;20029;-75
2023/04/20 06:59:34;;;;;;;8.43;4.70;;;;;;;7.36;100.00;101119.56;5184431;28;20364;-75
2023/04/20 07:02:05;;;;;;;10.30;5.47;;;;;;;7.34;100.00;101118.72;5182772;28;20057;-75
2023/04/20 07:04:35;;;;;;;9.85;5.18;;;;;;;7.44;100.00;101123.75;5188594;28;20029;-75
2023/04/20 07:07:05;;;;;;;7.22;4.57;;;;;;;7.56;100.00;101120.97;5169902;28;20029;-73
2023/04/20 07:09:36;;;;;;;8.82;4.82;;;;;;;8.68;100.00;101123.41;5187039;28;20459;-75
2023/04/20 07:12:06;;;;;;;8.80;4.93;;;;;;;10.56;90.79;101107.72;5188347;28;20036;-75
2023/04/20 07:14:36;;;;;;;8.20;4.50;;;;;;;12.00;81.69;101101.59;5170878;28;20054;-75
2023/04/20 07:17:07;;;;;;;5.85;4.20;;;;;;;12.77;78.64;101104.13;5169997;28;20045;-75
2023/04/20 07:19:37;;;;;;;6.40;3.67;;;;;;;12.63;76.67;101112.47;5188500;28;20029;-75
2023/04/20 07:22:07;;;;;;;6.30;3.72;;;;;;;13.44;74.76;101109.47;5189237;28;20049;-73
2023/04/20 07:24:37;;;;;;;6.20;3.80;;;;;;;12.61;76.16;101119.56;5171776;28;20030;-76
2023/04/20 07:27:08;;;;;;;6.72;3.97;;;;;;;10.44;81.61;101138.53;5188291;28;20495;-76
2023/04/20 07:29:38;;;;;;;5.93;3.55;;;;;;;9.22;85.89;101130.13;5188361;28;20079;-75
2023/04/20 07:32:08;;;;;;;5.38;3.33;;;;;;;9.00;86.82;101141.88;5187078;28;20603;-72
2023/04/20 07:34:39;;;;;;;8.25;3.70;;;;;;;9.11;87.27;101134.72;5182612;28;20025;-74
2023/04/20 07:37:09;;;;;;;5.85;3.22;;;;;;;11.40;79.34;101116.56;5179600;28;20034;-71
2023/04/20 07:39:40;;;;;;;5.95;3.53;;;;;;;12.28;74.66;101117.25;5186623;28;20563;-76
2023/04/20 07:42:10;;;;;;;5.13;3.28;;;;;;;12.88;71.55;101119.41;5186731;28;20038;-75
2023/04/20 07:44:40;;;;;;;7.55;3.20;;;;;;;14.15;68.73;101117.94;5186384;28;20061;-74
2023/04/20 07:47:10;;;;;;;4.25;2.55;;;;;;;14.17;65.75;101121.41;5187363;28;20365;-72
2023/04/20 07:49:42;;;;;;;5.57;3.03;;;;;;;12.33;72.11;101134.50;5187341;28;20232;-76
2023/04/20 07:52:12;;;;;;;5.00;2.53;;;;;;;10.60;77.85;101140.72;5189091;28;20045;-75
2023/04/20 07:54:45;;;;;;;4.38;2.67;;;;;;;10.34;78.86;101142.28;5185342;28;20396;-75
2023/04/20 07:57:16;;;;;;;5.20;2.80;;;;;;;10.59;79.06;101133.78;5183384;28;20029;-74
2023/04/20 07:59:46;;;;;;;4.60;2.72;;;;;;;11.17;75.66;101134.72;5186782;28;20028;-73
2023/04/20 08:02:17;;;;;;;6.05;2.65;;;;;;;10.32;77.02;101144.09;5188616;28;20037;-75
2023/04/20 08:04:48;;;;;;;4.07;2.42;;;;;;;10.40;76.89;101137.75;5185516;28;20491;-73
2023/04/20 08:07:18;;;;;;;4.60;2.47;;;;;;;9.92;76.60;101143.28;5188047;28;20480;-76
2023/04/20 08:09:48;;;;;;;5.15;2.70;;;;;;;9.75;77.75;101148.06;5183665;28;20029;-73
2023/04/20 08:12:19;;;;;;;4.43;2.67;;;;;;;9.74;79.38;101148.94;5188680;28;20176;-75
2023/04/20 08:14:49;;;;;;;4.28;2.47;;;;;;;9.77;79.90;101160.19;5184349;28;20472;-71
2023/04/20 08:17:20;;;;;;;6.10;3.10;;;;;;;11.78;78.11;101145.06;5186673;28;20033;-74
2023/04/20 08:19:50;;;;;;;5.00;3.00;;;;;;;12.93;72.62;101138.50;5185362;28;20473;-72
2023/04/20 08:22:20;;;;;;;4.85;2.75;;;;;;;13.43;70.59;101134.84;5189265;28;20027;-75
2023/04/20 08:24:50;;;;;;;4.80;2.53;;;;;;;13.84;69.80;101127.97;5182730;28;20079;-73
2023/04/20 08:27:21;;;;;;;4.10;2.35;;;;;;;14.15;66.03;101131.09;5166560;28;20248;-75
2023/04/20 08:29:51;;;;;;;3.72;2.47;;;;;;;12.89;69.18;101129.00;5185126;28;20025;-75
2023/04/20 08:32:23;;;;;;;4.07;2.63;;;;;;;11.74;72.52;101137.34;5178262;28;20368;-75
2023/04/20 08:34:54;;;;;;;4.80;2.42;;;;;;;11.45;72.20;101148.69;5179940;28;20021;-74
2023/04/20 08:37:25;;;;;;;3.60;2.35;;;;;;;11.31;71.61;101143.00;5188224;28;20095;-76
2023/04/20 08:39:56;;;;;;;5.20;2.50;;;;;;;11.12;74.17;101131.34;5182968;28;20061;-75
2023/04/20 08:42:27;;;;;;;4.95;2.30;;;;;;;10.57;76.49;101145.16;5183340;28;20628;-75
2023/04/20 08:44:58;;;;;;;4.72;2.45;;;;;;;9.91;78.04;101141.56;5184722;28;20480;-75
2023/04/20 08:47:30;;;;;;;5.25;3.00;;;;;;;9.59;80.88;101155.38;5170196;28;20029;-75
2023/04/20 08:50:02;;;;;;;5.95;3.00;;;;;;;9.45;80.51;101161.81;5169556;28;20048;-75
2023/04/20 08:52:34;;;;;;;6.93;3.25;;;;;;;9.08;81.62;101173.88;5187276;28;20554;-75
2023/04/20 08:55:06;;;;;;;5.65;3.30;;;;;;;9.22;82.80;101157.06;5185059;28;20314;-75
2023/04/20 08:57:36;;;;;;;5.78;3.05;;;;;;;9.32;81.38;101152.53;5185475;28;20040;-75
2023/04/20 09:00:09;;;;;;;7.60;3.40;;;;;;;9.22;81.37;101156.19;5186875;28;20294;-75
2023/04/20 09:02:54;;;;;;;4.90;3.13;;;;;;;9.15;82.39;101157.22;5186667;28;20034;-75
2023/04/20 09:05:30;;;;;;;6.13;3.08;;;;;;;9.29;82.55;101145.59;5181671;28;20017;-75
2023/04/20 09:08:01;;;;;;;5.63;3.33;;;;;;;9.15;81.61;101162.44;5185333;28;20065;-76
2023/04/20 09:10:42;;;;;;;5.30;2.90;;;;;;;9.28;82.05;101156.09;5186377;28;20068;-75
2023/04/20 09:13:22;;;;;;;6.70;3.35;;;;;;;9.28;82.32;101158.69;5185195;28;20458;-72
2023/04/20 09:15:52;;;;;;;6.90;3.10;;;;;;;9.40;80.81;101154.06;5180924;28;20033;-74
2023/04/20 09:18:23;;;;;;;5.20;3.20;;;;;;;9.13;81.89;101152.91;5187244;28;20434;-76
2023/04/20 09:20:54;;;;;;;7.05;3.55;;;;;;;9.30;82.51;101162.97;5184686;28;20022;-75
2023/04/20 09:23:24;;;;;;;5.18;3.28;;;;;;;9.09;81.29;101161.69;5186139;28;20053;-74
2023/04/20 09:25:54;;;;;;;4.82;3.10;;;;;;;9.40;80.11;101153.19;5184228;28;20036;-71
2023/04/20 09:28:36;;;;;;;4.90;3.08;;;;;;;9.44;81.15;101175.72;5178635;28;20495;-74
2023/04/20 09:31:17;;;;;;;6.18;3.50;;;;;;;8.96;81.61;101165.44;5182612;28;20040;-75
2023/04/20 09:33:58;;;;;;;6.65;3.92;;;;;;;9.38;81.95;101176.72;5185028;28;20048;-73
2023/04/20 09:36:40;;;;;;;7.28;3.53;;;;;;;9.75;80.79;101167.19;5182027;28;20025;-75
2023/04/20 09:39:15;;;;;;;5.50;3.30;;;;;;;9.74;79.27;101170.69;5184105;28;20030;-75
2023/04/20 09:41:47;;;;;;;7.10;3.97;;;;;;;9.73;81.20;101170.72;5183396;28;20018;-75
2023/04/20 09:44:18;;;;;;;7.80;3.70;;;;;;;9.98;79.68;101166.66;5184710;28;20040;-75
2023/04/20 09:46:48;;;;;;;7.18;3.83;;;;;;;9.87;79.74;101171.28;5179713;28;20029;-72
2023/04/20 09:49:20;;;;;;;7.40;3.90;;;;;;;9.79;80.64;101175.81;5168304;28;20028;-75
2023/04/20 09:51:51;;;;;;;6.47;3.85;;;;;;;9.63;80.93;101177.91;5183495;28;20044;-70
2023/04/20 09:54:21;;;;;;;7.68;3.80;;;;;;;9.57;79.42;101177.16;5185317;28;20029;-71
2023/04/20 09:56:52;;;;;;;6.38;3.80;;;;;;;9.99;79.16;101176.22;5181781;28;20040;-70
2023/04/20 09:59:23;;;;;;;6.65;3.65;;;;;;;9.94;78.80;101180.66;5178586;28;20033;-75
2023/04/20 10:01:54;;;;;;;6.15;3.33;;;;;;;10.07;76.70;101159.50;5181963;28;20026;-71
2023/04/20 10:04:24;;;;;;;7.38;3.65;;;;;;;10.65;77.46;101164.13;5185239;28;20029;-75
2023/04/20 10:06:56;;;;;;;6.40;3.53;;;;;;;10.48;77.84;101168.94;5181295;28;20149;-75
2023/04/20 10:09:27;;;;;;;7.75;3.65;;;;;;;10.08;77.05;101176.00;5183767;28;20033;-75
2023/04/20 10:12:08;;;;;;;6.25;3.65;;;;;;;9.76;79.26;101162.81;5178046;28;20471;-74
2023/04/20 10:14:38;;;;;;;6.72;3.75;;;;;;;9.96;79.98;101160.63;5179768;28;20072;-74
2023/04/20 10:17:10;;;;;;;6.18;3.42;;;;;;;9.88;79.56;101167.75;5179484;28;20061;-75
2023/04/20 10:19:42;;;;;;;7.28;3.85;;;;;;;10.18;78.52;101156.63;5162687;28;20460;-74
2023/04/20 10:22:28;;;;;;;5.60;3.50;;;;;;;10.49;77.41;101162.81;5165246;28;20061;-74
2023/04/20 10:24:59;;;;;;;5.28;3.38;;;;;;;10.22;74.75;101166.97;5173086;28;20080;-75
2023/04/20 10:27:31;;;;;;;6.10;3.60;;;;;;;10.47;75.68;101167.19;5179674;28;20454;-75
2023/04/20 10:30:11;;;;;;;4.28;2.90;;;;;;;10.56;76.99;101182.63;5180248;28;20024;-74
2023/04/20 10:32:41;;;;;;;5.78;3.40;;;;;;;10.33;77.97;101177.16;5181518;28;20060;-74
2023/04/20 10:35:13;;;;;;;5.47;3.45;;;;;;;10.27;77.14;101166.84;5164869;28;20037;-74
2023/04/20 10:37:48;;;;;;;7.18;3.55;;;;;;;10.46;77.96;101168.09;5186709;28;20025;-71
2023/04/20 10:40:28;;;;;;;5.43;3.70;;;;;;;10.09;78.42;101178.59;5164897;28;20097;-74
2023/04/20 10:42:58;;;;;;;5.18;3.40;;;;;;;10.20;77.76;101170.50;5175223;28;20038;-74
2023/04/20 10:45:37;;;;;;;5.35;3.40;;;;;;;9.78;77.07;101171.47;5180105;28;20048;-73
2023/04/20 10:48:10;;;;;;;5.57;3.63;;;;;;;10.19;79.35;101163.56;5180617;28;21470;-75
2023/04/20 10:50:41;;;;;;;5.85;3.70;;;;;;;10.21;76.37;101167.88;5185636;28;20072;-74
2023/04/20 10:53:22;;;;;;;5.82;3.38;;;;;;;10.46;76.68;101158.50;5162497;28;20033;-72
2023/04/20 10:55:59;;;;;;;6.20;3.45;;;;;;;10.40;75.31;101156.06;5177835;28;20091;-71
2023/04/20 10:58:30;;;;;;;5.78;3.40;;;;;;;10.63;76.21;101150.22;5176103;28;20037;-75
2023/04/20 11:01:02;;;;;;;6.32;3.40;;;;;;;10.87;75.81;101139.09;5183911;28;20022;-74
2023/04/20 11:03:33;;;;;;;5.43;3.30;;;;;;;10.77;74.34;101142.84;5185851;28;20037;-74
2023/04/20 11:06:03;;;;;;;4.88;3.00;;;;;;;11.27;74.73;101130.91;5181286;28;20036;-72
2023/04/20 11:08:37;;;;;;;4.88;2.95;;;;;;;11.34;72.26;101135.09;5186588;28;20018;-74
2023/04/20 11:11:26;;;;;;;4.72;3.13;;;;;;;11.71;72.13;101140.06;5180198;28;20040;-74
2023/04/20 11:14:09;;;;;;;7.72;2.70;;;;;;;11.74;72.92;101142.59;5164882;28;20057;-71
2023/04/20 11:16:51;;;;;;;4.88;3.00;;;;;;;11.86;72.72;101132.59;5184798;28;20084;-73
2023/04/20 11:19:34;;;;;;;4.85;3.17;;;;;;;11.66;72.18;101137.63;5182423;28;20029;-74
2023/04/20 11:22:05;;;;;;;5.40;2.95;;;;;;;12.03;70.80;101130.31;5166250;28;20040;-74
2023/04/20 11:24:37;;;;;;;5.03;3.30;;;;;;;12.07;71.45;101121.44;5178295;28;20570;-75
2023/04/20 11:27:17;;;;;;;6.07;3.35;;;;;;;11.80;73.79;101117.06;5178162;28;20266;-74
2023/04/20 11:29:58;;;;;;;6.00;3.35;;;;;;;11.65;75.79;101111.47;5162213;28;20262;-72
2023/04/20 11:32:29;;;;;;;4.43;3.20;;;;;;;11.76;74.62;101107.59;5179719;28;20029;-75
2023/04/20 11:35:06;;;;;;;4.78;3.20;;;;;;;12.10;74.93;101099.53;5179059;28;20064;-75
2023/04/20 11:37:53;;;;;;;5.40;3.08;;;;;;;12.01;71.58;101111.16;5180916;28;20399;-74
2023/04/20 11:40:23;;;;;;;5.03;2.90;;;;;;;11.94;70.82;101104.38;5160404;28;20289;-71
2023/04/20 11:42:53;;;;;;;5.75;3.08;;;;;;;11.60;70.95;101103.75;5179109;28;20373;-72
2023/04/20 11:45:24;;;;;;;4.68;2.70;;;;;;;11.66;72.33;101108.81;5182985;28;20579;-71
2023/04/20 11:47:54;;;;;;;4.85;2.95;;;;;;;11.56;72.36;101102.16;5184997;28;20025;-74
2023/04/20 11:50:25;;;;;;;4.80;2.97;;;;;;;11.47;71.03;101109.38;5168073;28;20022;-73
2023/04/20 11:52:55;;;;;;;4.68;2.85;;;;;;;11.73;70.98;101105.09;5183052;28;20452;-75
2023/04/20 11:55:25;;;;;;;4.38;3.03;;;;;;;11.63;69.67;101105.44;5184380;28;20471;-74
2023/04/20 11:57:56;;;;;;;4.60;3.00;;;;;;;11.67;70.41;101107.03;5181236;28;20444;-75
2023/04/20 12:00:26;;;;;;;4.65;2.80;;;;;;;11.41;71.13;101102.56;5163103;28;20104;-74
2023/04/20 12:02:56;;;;;;;5.43;3.22;;;;;;;11.56;73.52;101112.63;5183753;28;20029;-74
2023/04/20 12:05:28;;;;;;;5.78;3.45;;;;;;;11.53;72.90;101096.97;5181410;28;20049;-73
2023/04/20 12:07:58;;;;;;;6.38;3.75;;;;;;;11.58;73.33;101100.34;5182469;28;20397;-74
2023/04/20 12:10:28;;;;;;;5.63;3.50;;;;;;;11.67;72.11;101094.81;5183906;28;20062;-75
2023/04/20 12:13:00;;;;;;;5.47;3.30;;;;;;;11.55;72.69;101095.16;5180697;28;20064;-74
2023/04/20 12:15:30;;;;;;;5.45;3.30;;;;;;;11.10;73.79;101101.78;5180522;28;20049;-73
2023/04/20 12:18:00;;;;;;;5.53;3.22;;;;;;;11.41;72.82;101099.97;5178486;28;20125;-72
2023/04/20 12:20:31;;;;;;;5.93;3.47;;;;;;;11.35;74.18;101102.78;5171317;28;20088;-73
2023/04/20 12:23:01;;;;;;;5.97;3.42;;;;;;;11.49;73.76;101108.44;5184366;28;20029;-72